Timeline UpdatesTrip UpdatesNews PostsPvt PostsTravel TipsAdmin PostsConv PostsFollowed PostsChat RequestsBlog PostsPNR Posts

Disclaimer
Search
 
 
Thu Apr 24, 2014 14:04:54 ISTHomeTrainsΣChainsAtlasPNRForumGalleryNewsFAQTripsMembersLoginFeedback
No Recent News for this Train
Other Trains in the News **new
Latest...
Train leaving Hatia on 30th and 31st January will be diverted to run via Siwan-Thawe-Kaptanganj-Gorakhpur ; #967235
Fri Jan 17, 2014 (07:37PM)
⇐ Return Journey: Train# 15028

15027/Maurya Express

Jul 01 2013 (3:53PM)
Change Departure Station:
Change Arrival Station:
Post a Train Travel TipPost a Train Travel Tip **new
Post a Comment/Question/Picture/VideoPost a Comment/Question/Picture/Video
Pantry/Catering
✕ NO Pantry Car
✓ Catering Avbl
RSA - Rake Sharing
Rake/Coach Composition
LOCO-SLR-GEN-GEN-GEN-SE1-B1-A1-S4-S3-S2-S1-GEN-GEN-GEN-SLR ( temporarily augmented with one extra Sleeper coach for summer rush )
Loco
HWH WAP-4 (HTE-BJU) GD WDM-3A (BJU-GKP)
News    PNR    Forum    Time-Table    Availability    Fare Chart    Map    Arr/Dep History    Trips    Gallery    ΣChains    X/O    Timeline    
Travel Time: 19h 27m    36 halts    Distance: 697 km    Avg Speed: 35 km/hr
Type: Mail/Express
Zone: NER/North Eastern
Departs @ 17:05 (Avg on time)
Platform# 1
SMTWTFS
Hatia/HTE 
Arrives @ 12:32 +1 night (Avg 1h 0m late)
Platform# ???
SMTWTFS
Ekma/EKMA 

36 halts. 137 intermediate Stations between Hatia and Ekma

Show ALL intermediate Stations  Show Old Time-Table

#CodeStation NameX/OArrivesAvgDepartsAvgHaltPFDay#KmSpeedElevZoneAddress
1HTE»Hatia (3)»  -17:05+0110.028657mSER2788599, Jharkhand
2RNCRanchi Junction (6)X  17:20+117:30+210m117.055632mSERDiv HQ SER, Jharkhand
3MURIMuri Junction (3)X  18:35+418:40+55m1167.139257mSER06522-222444, Jharkhand
4JAAJhalida (3)  18:59+519:00+61m--179.441297mSERJhalida, West Bengal
5KSXKotshila Junction (3)X  19:17+419:18+61m2191.163312mSERPurulia District, West Bengal
6BKSCBokaro Steel City (3)X  19:45+219:50+35m11119.327245mSER06542-253861, Jharkhand
7CRPChandrapura Junction (2)  20:24+620:26+122m11134.938227mECR06549-242555, Jharkhand
8KTHKatrasgarh (1)  20:58+1621:03+165m11155.418198mECRKatrasgarh, Jharkhand
9DHNDhanbad Junction (8)X  21:50+322:10+320m51169.264235mECR2319801. Div. HQ ECR, Jharkhand
10KMMEKumardubi (2)  22:46+2122:47+221m--1207.630135mERDhanbad - 828203(06540-222077), Jharkhand
11BRRBarakar (2)X  22:52+2222:53+231m--1210.212129mERDist. Bardhaman, West Bengal
12ULTKulti (3)  23:10+1523:11+211m--1213.438148mERdist - bardhaman, West Bengal
13CRJChittaranjan (3)X  23:41+2323:42+251m31232.277182mERMihijam, Jharkhand
14VDSVidyasagar (2)X  00:07+3200:08+341m--2264.463250mERJamtara, Jharkhand
15MDPMadhupur Junction (4)X  00:31+3200:35+324m22288.673254mER06432-224478, Jharkhand
16JSMEJasidih Junction (5)X  00:59+3401:04+335m--2317.743271mERJasidih, Jharkhand
17JAJJhajha (4)  02:05+2002:15+1910m--2361.882143mECRJhajha, Bihar
18JMUJamui (3)X  02:34+2302:35+251m--2387.86681mECRState Highway 72, Bihar
19KIULKiul Junction (5)  03:00+2803:05+285m--2415.11253mECRDist. Lakhisarai, Bihar
20LKRLuckeesarai Junction (2)  03:12+2803:13+301m12416.43152mECRLakhisarai, Bihar
21BRYABarhiyaX  03:42+1903:43+221m--2431.52147mECRBarahiya, Bihar
22HTZHathidah Junction (2)  04:10-04:11-1m12440.91450mECRMusahari, Bihar
23BJUBarauni Junction (9)05:05+2105:35+2130m72453.549 ECRBegusarai, Bihar
24BCABachwara JunctionX  05:55+3105:56+331m--2469.95146mECRBegusarai, Bihar
25DSSDalsingh Sarai (2)  06:09+3406:10+351m12480.83549mECR06278-221238, Bihar
26SPJSamastipur Junction (9)X  06:50+3107:00+3110m92504.03855mECRSamastipur, Bihar
27KPGMKarpurigram (3)  07:10+3507:11+361m--2510.35551mECRState Highway 49, Bihar
28KRBPKhudiram B PusaX  07:19+3707:20+381m--2517.76252mECRDistt. Samastipur, Bihar
29DOLDholi (2)X  07:33+3907:34+411m--2531.04952mECRDistt. Muzaffarpur, Bihar
30MFPMuzaffarpur Junction (6)X  08:05+5108:15+5410m22556.23557mECRMuzaffarpur, Bihar
31GRLGoraul (2)X  08:59+4909:00+551m22582.02257mECRNational Highway 77, Bihar
32BNRBhagwanpur (3)  09:23+4309:24+521m22590.33560mECRBhagwanpur, Bihar
33HJPHajipur Junction (3)  09:58+4509:59+561m12610.03355mECR06224-272230, Bihar
34SEESonpur Junction (4)  10:09+5610:19+5210m--2615.56656mECRSaran, Bihar
35DGADighwara (2)  10:40+5510:41+571m--2638.62960mECR06158-281240, Bihar
36CIChhapra Kacheri (3)  11:40+4611:42+512m--2667.41657mNERChhapra, Bihar
37CPRChhapra Junction (6)X  11:50+5312:10+5320m--2669.57658mNERDistt: Saran, Bihar
38EKMA•Ekma (3)•  12:32+1:0012:33+1:021m--2697.45564mNERSaran, Bihar
39DDADuraundha Junction (3)  12:50+1:0412:51+1:071m--2712.95664mNERDistt: Siwan, Bihar
40SVSiwan Junction (4)  13:10+1:0913:15+1:115m--2730.74870mNERSiwan, Bihar
41ZRDEJiradei (2)13:28+1:0913:30+1:152m--2741.09469mNERSiwan, Bihar
42MWMairwa (2)  13:37+1:1413:38+1:171m--2752.03973mNERMairwa, Bihar
43BTKBankata (2)  13:48+1:1613:49+1:191m--2758.51973mNERDeoria, Uttar Pradesh
44BHTRBhatpar Rani (2)  14:14+1:0514:15+1:091m--2766.52673mNERDeoria, Uttar Pradesh
45BTTBhatni Junction (5)XO  14:45+5614:50+585m--2779.47873mNERDeoria, Uttar Pradesh
46DEOSDeoria Sadar (3)  15:06+1:0415:07+1:101m--2800.22879mNERDeoria- 274001, Uttar Pradesh
47GBGauri Bazar (2)  15:39+5815:40+1:001m--2815.23182mNERDistrict Deoria- Pincode- 274202, Uttar Pradesh
48CCChauri Chaura (2)X  15:59+5216:00+541m--2824.91884mNERGorakhpur- PinCode:- 273201, Uttar Pradesh
49GKPGorakhpur Junction (10)  17:20+30-12849.3-84mNERGorakhpur 273001, Uttar Pradesh
Scroll to Top
Scroll to Bottom